Latest Weather Observations for Telfer

IDW60801

Issued at 8:02 am WST Friday 29 May 2015 (issued every 30 minutes, with the page automatically refreshed every 10 minutes)

About weather observations | Map of weather stations | Latest weather observations for WA | Other Formats
Station Details ID: 013030 Name: TELFER AERO Lat: -21.71 Lon: 122.23 Height: 291.9 m
Data from the previous 72 hours. | See also: Recent months at Telfer
Date/Time
WST
Temp
°C
App
Temp
°C
Dew
Point
Rel
Hum
%
Delta-T
°C
Wind Press
QNH
hPa
Press
MSL
hPa
Rain
since 9 am
mm
Dir
 
Spd
km/h
Gust
km/h
Spd
kts
Gust
kts
29/08:00am 17.6 17.6 17.3 98 0.2 SSE 13 17 7 9 1019.1 1017.9 1.4
29/07:30am 16.9 16.3 16.7 99 0.1 SSE 15 19 8 10 1018.7 1017.5 1.4
29/07:00am 16.7 16.4 16.5 99 0.1 SSE 13 15 7 8 1018.3 1017.1 1.4
29/06:30am 16.5 16.1 16.3 99 0.1 SE 13 15 7 8 1017.7 1016.5 1.4
29/06:00am 16.6 15.9 16.4 99 0.1 SE 15 20 8 11 1017.1 1015.9 1.4
29/05:30am 16.7 16.0 16.5 99 0.1 SE 15 20 8 11 1017.0 1015.7 1.4
29/05:00am 16.8 16.2 16.6 99 0.1 SE 15 19 8 10 1017.0 1015.7 1.4
29/04:30am 16.8 16.2 16.6 99 0.1 SE 15 19 8 10 1017.0 1015.7 1.4
29/04:00am 16.8 16.2 16.6 99 0.1 SE 15 17 8 9 1016.5 1015.3 1.4
29/03:30am 16.8 16.2 16.6 99 0.1 ESE 15 20 8 11 1016.4 1015.2 1.4
29/03:00am 16.9 15.9 16.7 99 0.1 SE 17 22 9 12 1016.8 1015.5 1.4
29/02:30am 17.0 15.7 16.7 98 0.2 SSE 19 24 10 13 1017.1 1015.9 1.2
29/02:00am 17.0 16.4 16.7 98 0.2 SE 15 20 8 11 1017.9 1016.7 1.2
29/01:30am 17.0 15.5 16.8 99 0.1 SE 20 24 11 13 1017.6 1016.4 1.2
29/01:00am 16.8 15.4 16.6 99 0.1 SE 19 22 10 12 1017.6 1016.4 1.2
29/12:30am 16.9 15.8 16.4 97 0.3 SE 17 20 9 11 1018.4 1017.2 1.2
29/12:00am 16.9 15.4 16.4 97 0.3 SE 19 24 10 13 1018.4 1017.2 1.2
 
Date/Time
WST
Temp
°C
App
Temp
°C
Dew
Point
Rel
Hum
%
Delta-T
°C
Wind Press
QNH
hPa
Press
MSL
hPa
Rain
since 9 am
mm
Dir
 
Spd
km/h
Gust
km/h
Spd
kts
Gust
kts
28/11:30pm 16.9 15.4 16.3 96 0.4 SE 19 22 10 12 1018.4 1017.2 1.2
28/11:00pm 17.0 15.3 16.2 95 0.5 SE 20 24 11 13 1018.7 1017.5 1.2
28/10:30pm 17.0 15.3 16.2 95 0.5 SE 20 24 11 13 1018.7 1017.5 1.2
28/10:00pm 17.1 14.5 16.0 93 0.7 SSE 24 30 13 16 1018.7 1017.5 1.2
28/09:30pm 17.4 15.1 16.6 95 0.5 SSE 24 30 13 16 1018.8 1017.6 1.2
28/09:00pm 17.6 16.1 16.8 95 0.5 SSE 20 26 11 14 1018.8 1017.6 1.2
28/08:30pm 17.7 16.9 17.1 96 0.4 SSE 17 24 9 13 1019.0 1017.8 0.8
28/08:00pm 17.9 16.5 16.9 94 0.6 SSE 20 24 11 13 1019.0 1017.8 0.4
28/07:30pm 18.0 15.7 16.7 92 0.8 SSE 24 30 13 16 1018.1 1016.9 0.4
28/07:00pm 18.0 16.6 16.9 93 0.7 SSE 20 26 11 14 1017.8 1016.6 0.4
28/06:30pm 18.0 16.2 16.9 93 0.7 SE 22 30 12 16 1017.4 1016.2 0.4
28/06:00pm 18.3 16.0 16.6 90 1.0 SSE 24 32 13 17 1017.3 1016.1 0.4
28/05:30pm 18.4 17.1 16.9 91 0.9 S 19 24 10 13 1017.5 1016.3 0.4
28/05:00pm 18.6 17.2 16.9 90 1.0 SSE 20 26 11 14 1017.1 1015.9 0.4
28/04:30pm 18.9 17.9 16.7 87 1.3 SSE 17 20 9 11 1017.1 1015.9 0.4
28/04:00pm 19.2 18.1 16.4 84 1.7 SSE 17 22 9 12 1016.5 1015.3 0.4
28/03:30pm 19.3 18.1 16.0 81 2.0 SE 17 20 9 11 1016.3 1015.1 0.4
28/03:00pm 19.4 17.5 15.7 79 2.2 SE 20 26 11 14 1015.9 1014.7 0.4
28/02:30pm 19.7 17.8 15.1 75 2.7 SE 19 24 10 13 1015.8 1014.6 0.4
28/02:00pm 19.7 17.1 14.9 74 2.8 SE 22 28 12 15 1015.8 1014.6 0.4
28/01:30pm 19.6 17.8 15.5 77 2.5 ESE 19 20 10 11 1016.2 1015.0 0.4
28/01:00pm 19.8 18.5 14.8 73 3.0 ESE 15 19 8 10 1016.4 1015.2 0.4
28/12:30pm 19.8 18.7 15.4 76 2.6 ESE 15 19 8 10 1016.8 1015.5 0.4
28/12:00pm 19.6 18.5 15.3 76 2.6 S 15 19 8 10 1017.5 1016.3 0.0
28/11:30am 19.7 18.9 15.1 75 2.7 ESE 13 17 7 9 1017.7 1016.5 0.0
28/11:00am 19.3 18.2 15.4 78 2.3 SE 15 19 8 10 1017.8 1016.6 0.0
28/10:30am 19.4 18.2 15.1 76 2.6 SE 15 19 8 10 1018.4 1017.2 0.0
28/10:00am 19.2 17.3 15.3 78 2.3 ESE 19 24 10 13 1018.6 1017.4 0.0
28/09:30am 18.7 16.8 15.2 80 2.1 E 19 24 10 13 1018.2 1017.0 0.0
28/09:00am 18.7 16.5 15.0 79 2.2 E 20 24 11 13 1018.2 1017.0 0.0
28/08:30am 18.3 17.6 15.4 83 1.7 E 13 19 7 10 1018.4 1017.2 0.0
28/08:00am 17.6 15.9 15.8 89 1.1 E 19 24 10 13 1017.6 1016.4 0.0
28/07:30am 17.1 16.6 16.0 93 0.7 ENE 13 19 7 10 1018.0 1016.8 0.0
28/07:00am 16.8 16.3 15.8 94 0.6 E 13 15 7 8 1018.0 1016.8 0.0
28/06:30am 17.1 16.4 15.3 89 1.1 SSW 13 15 7 8 1018.5 1017.3 0.0
28/06:00am 17.3 15.7 15.1 87 1.3 SW 17 24 9 13 1018.7 1017.5 0.0
28/05:30am 17.1 16.8 15.4 90 1.0 SSW 11 13 6 7 1017.6 1016.4 0.0
28/05:00am 17.1 18.2 15.6 91 0.9 WSW 4 11 2 6 1017.6 1016.4 0.0
28/04:30am 16.8 16.8 15.3 91 0.9 ENE 9 13 5 7 1016.5 1015.3 0.0
28/04:00am 17.0 16.2 15.0 88 1.2 ENE 13 15 7 8 1016.3 1015.1 0.0
28/03:30am 16.9 16.8 14.9 88 1.2 E 9 13 5 7 1016.3 1015.1 0.0
28/03:00am 16.9 16.9 15.1 89 1.1 ESE 9 9 5 5 1016.5 1015.3 0.0
28/02:30am 16.9 16.9 15.1 89 1.1 ESE 9 11 5 6 1016.6 1015.4 0.0
28/02:00am 16.9 18.7 15.4 91 0.9 CALM 0 0 0 0 1016.9 1015.6 0.0
28/01:30am 17.0 18.7 15.2 89 1.1 CALM 0 0 0 0 1017.2 1016.0 0.0
28/01:00am 17.0 18.4 15.3 90 1.0 SE 2 6 1 3 1017.6 1016.4 0.0
28/12:30am 17.3 17.8 15.1 87 1.3 SE 6 6 3 3 1017.6 1016.4 0.0
28/12:00am 17.6 18.1 15.0 85 1.5 SSW 6 7 3 4 1017.8 1016.6 0.0
 
Date/Time
WST
Temp
°C
App
Temp
°C
Dew
Point
Rel
Hum
%
Delta-T
°C
Wind Press
QNH
hPa
Press
MSL
hPa
Rain
since 9 am
mm
Dir
 
Spd
km/h
Gust
km/h
Spd
kts
Gust
kts
27/11:30pm 17.5 19.2 15.1 86 1.4 CALM 0 0 0 0 1018.0 1016.8 0.0
27/11:00pm 17.5 17.5 15.1 86 1.4 SE 9 13 5 7 1017.7 1016.5 0.0
27/10:30pm 17.5 17.5 15.1 86 1.4 ESE 9 13 5 7 1017.7 1016.5 0.0
27/10:00pm 17.6 17.1 15.0 85 1.5 SE 11 13 6 7 1017.6 1016.4 0.0
27/09:30pm 17.6 17.1 15.0 85 1.5 SE 11 15 6 8 1017.6 1016.4 0.0
27/09:00pm 17.8 16.9 14.9 83 1.7 ESE 13 17 7 9 1017.7 1016.5 0.0
27/08:30pm 18.0 17.1 14.9 82 1.8 SE 13 17 7 9 1017.8 1016.6 0.0
27/08:00pm 18.0 16.4 14.9 82 1.8 SE 17 20 9 11 1017.5 1016.3 0.0
27/07:30pm 18.1 16.1 15.0 82 1.8 SSE 19 24 10 13 1017.3 1016.1 0.0
27/07:00pm 18.2 16.3 15.1 82 1.8 SSE 19 22 10 12 1017.0 1015.7 0.0
27/06:30pm 18.4 16.3 15.1 81 2.0 SSE 20 28 11 15 1017.0 1015.7 0.0
27/06:00pm 18.6 15.6 14.9 79 2.2 SSE 24 32 13 17 1016.6 1015.4 0.0
27/05:30pm 18.9 15.4 14.4 75 2.6 SSE 26 35 14 19 1016.3 1015.1 0.0
27/05:00pm 19.6 16.0 14.2 71 3.2 SSE 26 33 14 18 1016.1 1014.9 0.0
27/04:30pm 20.1 15.9 13.6 66 3.8 S 28 37 15 20 1016.0 1014.8 0.0
27/04:00pm 20.7 16.5 13.6 64 4.1 S 28 33 15 18 1015.7 1014.5 0.0
27/03:30pm 21.5 17.6 13.4 60 4.7 S 26 37 14 20 1016.0 1014.8 0.0
27/03:00pm 21.9 17.8 12.7 56 5.3 S 26 39 14 21 1015.7 1014.5 0.0
27/02:30pm 22.6 18.4 12.3 52 5.9 SSW 26 32 14 17 1015.7 1014.5 0.0
27/02:00pm 23.4 19.7 12.7 51 6.2 S 24 32 13 17 1015.8 1014.6 0.0
27/01:30pm 23.4 20.9 14.1 56 5.5 S 20 24 11 13 1015.7 1014.5 0.0
27/01:00pm 24.7 23.0 13.6 50 6.6 S 15 19 8 10 1015.5 1014.3 0.0
27/12:30pm 23.9 22.3 12.8 49 6.5 S 13 17 7 9 1016.2 1015.0 0.0
27/12:00pm 22.6 21.3 13.7 57 5.2 SSE 13 17 7 9 1016.5 1015.3 0.0
27/11:30am 22.1 21.3 14.0 60 4.8 S 11 15 6 8 1017.1 1015.9 0.0
27/11:00am 21.9 20.9 13.5 59 4.9 SSE 11 15 6 8 1017.2 1016.0 0.0
27/10:30am 21.1 20.5 13.5 62 4.4 SE 9 11 5 6 1017.6 1016.4 0.0
27/10:00am 20.5 19.6 13.7 65 4.0 ESE 11 13 6 7 1017.6 1016.4 0.0
27/09:30am 19.7 18.6 13.2 66 3.7 ENE 11 13 6 7 1018.3 1017.1 0.0
27/09:00am 19.0 17.6 13.4 70 3.2 ESE 13 15 7 8 1018.4 1017.2 0.0
27/08:30am 18.4 18.3 13.3 72 2.9 E 6 9 3 5 1018.8 1017.6 0.0
27/08:00am 17.9 16.8 13.2 74 2.7 ESE 11 15 6 8 1018.4 1017.2 0.0
27/07:30am 17.5 16.0 13.0 75 2.6 ESE 13 15 7 8 1018.3 1017.1 0.0
27/07:00am 17.1 15.4 12.6 75 2.5 SE 13 17 7 9 1018.1 1016.9 0.0
27/06:30am 16.9 14.8 12.4 75 2.5 SE 15 19 8 10 1017.7 1016.5 0.0
27/06:00am 17.0 14.5 12.3 74 2.6 SSE 17 22 9 12 1017.6 1016.4 0.0
27/05:30am 17.0 14.9 12.3 74 2.6 SE 15 19 8 10 1017.6 1016.4 0.0
27/05:00am 17.0 13.1 12.1 73 2.7 SE 24 30 13 16 1016.6 1015.4 0.0
27/04:30am 16.8 13.0 12.5 76 2.4 SE 24 30 13 16 1016.8 1015.5 0.0
27/04:00am 16.7 14.7 12.7 77 2.2 SE 15 22 8 12 1017.5 1016.3 0.0
27/03:30am 16.9 14.4 12.4 75 2.5 SE 17 20 9 11 1017.8 1016.6 0.0
27/03:00am 17.4 14.5 12.3 72 2.9 SE 19 24 10 13 1017.4 1016.2 0.0
27/02:30am 17.0 14.5 12.3 74 2.6 SE 17 20 9 11 1017.8 1016.6 0.0
27/02:00am 17.3 14.8 12.4 73 2.7 SE 17 20 9 11 1018.0 1016.8 0.0
27/01:30am 17.6 14.7 12.3 71 3.0 SE 19 22 10 12 1018.2 1017.0 0.0
27/01:00am 17.8 15.0 12.5 71 3.0 SE 19 22 10 12 1018.5 1017.3 0.0
27/12:30am 17.9 15.1 12.6 71 3.0 SE 19 24 10 13 1018.8 1017.6 0.0
27/12:00am 18.1 15.4 12.8 71 3.0 SE 19 24 10 13 1019.0 1017.8 0.0
 
Date/Time
WST
Temp
°C
App
Temp
°C
Dew
Point
Rel
Hum
%
Delta-T
°C
Wind Press
QNH
hPa
Press
MSL
hPa
Rain
since 9 am
mm
Dir
 
Spd
km/h
Gust
km/h
Spd
kts
Gust
kts
26/11:30pm 18.3 15.3 12.7 70 3.2 SE 20 26 11 14 1019.0 1017.8 0.0
26/11:00pm 18.6 14.9 12.8 69 3.3 SE 24 28 13 15 1019.5 1018.3 0.0
26/10:30pm 18.8 15.6 13.0 69 3.3 SE 22 28 12 15 1019.5 1018.3 0.0
26/10:00pm 19.0 14.9 12.7 67 3.6 SE 26 30 14 16 1019.7 1018.5 0.0
26/09:30pm 19.2 15.6 12.9 67 3.6 SSE 24 30 13 16 1019.9 1018.7 0.0
26/09:00pm 19.5 16.4 13.4 68 3.5 SE 22 28 12 15 1019.8 1018.6 0.0
26/08:30pm 20.2 17.2 12.7 62 4.3 SSE 20 26 11 14 1019.9 1018.7 0.0
26/08:00pm 20.7 17.0 11.6 56 5.1 SSE 22 30 12 16 1019.6 1018.4 0.0
26/07:30pm 21.0 17.7 11.6 55 5.3 SSE 20 24 11 13 1019.3 1018.1 0.0
26/07:00pm 21.3 18.1 11.9 55 5.3 SSE 20 28 11 15 1019.0 1017.8 0.0
26/06:30pm 21.4 18.0 11.4 53 5.6 SSE 20 24 11 13 1018.5 1017.3 0.0
26/06:00pm 21.7 18.0 11.4 52 5.8 SSE 22 28 12 15 1018.2 1017.0 0.0
26/05:30pm 22.0 18.6 11.1 50 6.1 SSE 20 26 11 14 1018.0 1016.8 0.0
26/05:00pm 22.2 19.9 11.6 51 6.0 SSE 15 19 8 10 1017.8 1016.6 0.0
26/04:30pm 22.9 20.8 11.3 48 6.6 S 13 17 7 9 1017.7 1016.5 0.0
26/04:00pm 23.6 21.5 11.0 45 7.1 SSE 13 17 7 9 1017.5 1016.3 0.0
26/03:30pm 24.0 21.8 10.7 43 7.5 SSE 13 17 7 9 1017.6 1016.4 0.0
26/03:00pm 24.2 21.1 9.0 38 8.3 SSE 15 17 8 9 1017.4 1016.2 0.0
26/02:30pm 24.8 22.6 9.5 38 8.5 SE 11 15 6 8 1017.4 1016.2 0.0
26/02:00pm 24.7 22.4 9.0 37 8.6 ESE 11 15 6 8 1017.3 1016.1 0.0
26/01:30pm 24.4 21.6 8.4 36 8.7 ESE 13 19 7 10 1017.3 1016.1 0.0
26/01:00pm 24.1 21.7 8.5 37 8.4 E 11 15 6 8 1017.8 1016.6 0.0
26/12:30pm 23.3 20.6 9.0 40 7.8 E 13 17 7 9 1018.4 1017.2 0.0
26/12:00pm 23.2 20.1 8.9 40 7.7 ENE 15 20 8 11 1018.4 1017.2 0.0
26/11:30am 23.0 20.3 10.4 45 7.0 E 15 20 8 11 1019.0 1017.8 0.0
26/11:00am 21.8 18.9 9.7 46 6.6 ESE 15 20 8 11 1019.5 1018.3 0.0
26/10:30am 21.3 18.3 10.5 50 6.0 ESE 17 22 9 12 1019.7 1018.5 0.0
26/10:00am 20.6 17.0 9.8 50 5.9 ESE 19 28 10 15 1020.2 1019.1 0.0
26/09:30am 19.9 15.7 9.8 52 5.5 ESE 22 26 12 14 1020.2 1019.1 0.0
26/09:00am 19.8 16.2 10.5 55 5.1 ESE 20 26 11 14 1020.5 1019.3 0.8
26/08:30am 18.6 15.1 10.2 58 4.6 ESE 19 28 10 15 1020.8 1019.6 0.8

Other Formats:

Comma delimited format used in spreadsheet applications
http://www.bom.gov.au/fwo/IDW60801/IDW60801.94319.axf

JavaScript Object Notation format (JSON) in row-major order
http://www.bom.gov.au/fwo/IDW60801/IDW60801.94319.json